sensor_id;sensor_type;location;lat;lon;timestamp;pressure;altitude;pressure_sealevel;temperature;humidity
9307;BME280;4691;47.612;7.610;2023-02-28T00:01:07;99258.13;;;0.95;100.00
9307;BME280;4691;47.612;7.610;2023-02-28T00:03:33;99259.88;;;0.96;100.00
9307;BME280;4691;47.612;7.610;2023-02-28T00:06:01;99259.97;;;0.93;100.00
9307;BME280;4691;47.612;7.610;2023-02-28T00:08:27;99265.25;;;0.93;100.00
9307;BME280;4691;47.612;7.610;2023-02-28T00:10:52;99261.69;;;0.94;100.00
9307;BME280;4691;47.612;7.610;2023-02-28T00:13:17;99264.34;;;0.92;100.00
9307;BME280;4691;47.612;7.610;2023-02-28T00:15:43;99261.66;;;0.95;100.00
9307;BME280;4691;47.612;7.610;2023-02-28T00:18:09;99267.88;;;0.93;100.00
9307;BME280;4691;47.612;7.610;2023-02-28T00:20:34;99259.16;;;0.91;100.00
9307;BME280;4691;47.612;7.610;2023-02-28T00:22:59;99259.88;;;0.96;100.00
9307;BME280;4691;47.612;7.610;2023-02-28T00:25:25;99265.25;;;0.93;100.00
9307;BME280;4691;47.612;7.610;2023-02-28T00:27:51;99260.84;;;0.93;100.00
9307;BME280;4691;47.612;7.610;2023-02-28T00:30:19;99252.97;;;0.92;100.00
9307;BME280;4691;47.612;7.610;2023-02-28T00:32:45;99265.28;;;0.91;100.00
9307;BME280;4691;47.612;7.610;2023-02-28T00:35:10;99266.25;;;0.89;100.00
9307;BME280;4691;47.612;7.610;2023-02-28T00:37:36;99265.28;;;0.91;100.00
9307;BME280;4691;47.612;7.610;2023-02-28T00:40:03;99266.25;;;0.89;100.00
9307;BME280;4691;47.612;7.610;2023-02-28T00:42:30;99267.06;;;0.91;100.00
9307;BME280;4691;47.612;7.610;2023-02-28T00:44:55;99266.28;;;0.87;100.00
9307;BME280;4691;47.612;7.610;2023-02-28T00:47:21;99266.22;;;0.90;100.00
9307;BME280;4691;47.612;7.610;2023-02-28T00:49:46;99254.84;;;0.88;100.00
9307;BME280;4691;47.612;7.610;2023-02-28T00:52:11;99270.59;;;0.90;100.00
9307;BME280;4691;47.612;7.610;2023-02-28T00:54:37;99262.78;;;0.86;100.00
9307;BME280;4691;47.612;7.610;2023-02-28T00:57:02;99260.16;;;0.86;100.00
9307;BME280;4691;47.612;7.610;2023-02-28T00:59:27;99265.41;;;0.86;100.00
9307;BME280;4691;47.612;7.610;2023-02-28T01:01:53;99268.13;;;0.85;100.00
9307;BME280;4691;47.612;7.610;2023-02-28T01:04:18;99265.41;;;0.86;100.00
9307;BME280;4691;47.612;7.610;2023-02-28T01:06:43;99270.78;;;0.83;100.00
9307;BME280;4691;47.612;7.610;2023-02-28T01:09:09;99269.88;;;0.84;100.00
9307;BME280;4691;47.612;7.610;2023-02-28T01:11:35;99272.38;;;0.89;100.00
9307;BME280;4691;47.612;7.610;2023-02-28T01:14:01;99268.97;;;0.85;100.00
9307;BME280;4691;47.612;7.610;2023-02-28T01:16:27;99269.84;;;0.86;100.00
9307;BME280;4691;47.612;7.610;2023-02-28T01:18:52;99268.91;;;0.87;100.00
9307;BME280;4691;47.612;7.610;2023-02-28T01:21:20;99268.19;;;0.82;100.00
9307;BME280;4691;47.612;7.610;2023-02-28T01:23:46;99265.53;;;0.83;100.00
9307;BME280;4691;47.612;7.610;2023-02-28T01:26:17;99266.47;;;0.81;100.00
9307;BME280;4691;47.612;7.610;2023-02-28T01:28:43;99268.97;;;0.85;100.00
9307;BME280;4691;47.612;7.610;2023-02-28T01:31:09;99265.50;;;0.85;100.00
9307;BME280;4691;47.612;7.610;2023-02-28T01:33:35;99265.53;;;0.83;100.00
9307;BME280;4691;47.612;7.610;2023-02-28T01:36:05;99264.78;;;0.80;100.00
9307;BME280;4691;47.612;7.610;2023-02-28T01:38:32;99264.78;;;0.80;100.00
9307;BME280;4691;47.612;7.610;2023-02-28T01:40:57;99258.59;;;0.81;100.00
9307;BME280;4691;47.612;7.610;2023-02-28T01:43:26;99259.50;;;0.80;100.00
9307;BME280;4691;47.612;7.610;2023-02-28T01:45:53;99267.34;;;0.81;100.00
9307;BME280;4691;47.612;7.610;2023-02-28T01:48:21;99263.00;;;0.80;100.00
9307;BME280;4691;47.612;7.610;2023-02-28T01:50:49;99258.44;;;0.85;100.00
9307;BME280;4691;47.612;7.610;2023-02-28T01:53:18;99260.06;;;0.90;100.00
9307;BME280;4691;47.612;7.610;2023-02-28T01:55:47;99259.31;;;0.86;100.00
9307;BME280;4691;47.612;7.610;2023-02-28T01:58:13;99258.34;;;0.89;100.00
9307;BME280;4691;47.612;7.610;2023-02-28T02:00:39;99248.09;;;0.79;100.00
9307;BME280;4691;47.612;7.610;2023-02-28T02:03:11;99250.53;;;0.85;100.00
9307;BME280;4691;47.612;7.610;2023-02-28T02:05:39;99255.09;;;0.80;100.00
9307;BME280;4691;47.612;7.610;2023-02-28T02:08:07;99255.00;;;0.83;100.00
9307;BME280;4691;47.612;7.610;2023-02-28T02:10:55;99254.28;;;0.78;100.00
9307;BME280;4691;47.612;7.610;2023-02-28T02:13:34;99244.59;;;0.79;100.00
9307;BME280;4691;47.612;7.610;2023-02-28T02:18:53;99249.88;;;0.79;100.00
9307;BME280;4691;47.612;7.610;2023-02-28T02:21:56;99244.56;;;0.80;100.00
9307;BME280;4691;47.612;7.610;2023-02-28T02:24:46;99239.22;;;0.82;100.00
9307;BME280;4691;47.612;7.610;2023-02-28T02:27:44;99238.47;;;0.78;100.00
9307;BME280;4691;47.612;7.610;2023-02-28T02:36:18;99238.38;;;0.81;100.00
9307;BME280;4691;47.612;7.610;2023-02-28T02:39:01;99232.28;;;0.79;100.00
9307;BME280;4691;47.612;7.610;2023-02-28T02:41:45;99233.09;;;0.81;100.00
9307;BME280;4691;47.612;7.610;2023-02-28T02:44:27;99232.22;;;0.82;100.00
9307;BME280;4691;47.612;7.610;2023-02-28T02:46:59;99243.00;;;0.75;100.00
9307;BME280;4691;47.612;7.610;2023-02-28T02:49:30;99241.31;;;0.72;100.00
9307;BME280;4691;47.612;7.610;2023-02-28T02:52:00;99245.63;;;0.75;100.00
9307;BME280;4691;47.612;7.610;2023-02-28T02:54:30;99239.56;;;0.71;100.00
9307;BME280;4691;47.612;7.610;2023-02-28T02:57:01;99250.41;;;0.62;100.00
9307;BME280;4691;47.612;7.610;2023-02-28T02:59:29;99246.50;;;0.46;100.00
9307;BME280;4691;47.612;7.610;2023-02-28T03:01:59;99250.16;;;0.41;100.00
9307;BME280;4691;47.612;7.610;2023-02-28T03:04:30;99255.53;;;0.37;100.00
9307;BME280;4691;47.612;7.610;2023-02-28T03:06:57;99252.94;;;0.35;100.00
9307;BME280;4691;47.612;7.610;2023-02-28T03:09:23;99255.69;;;0.31;100.00
9307;BME280;4691;47.612;7.610;2023-02-28T03:11:51;99258.25;;;0.34;100.00
9307;BME280;4691;47.612;7.610;2023-02-28T03:14:25;99263.75;;;0.26;100.00
9307;BME280;4691;47.612;7.610;2023-02-28T03:22:38;99274.28;;;0.26;100.00
9307;BME280;4691;47.612;7.610;2023-02-28T03:25:12;99275.13;;;0.27;100.00
9307;BME280;4691;47.612;7.610;2023-02-28T03:28:00;99276.16;;;0.21;100.00
9307;BME280;4691;47.612;7.610;2023-02-28T03:30:45;99278.22;;;0.10;100.00
9307;BME280;4691;47.612;7.610;2023-02-28T03:33:19;99284.53;;;0.04;100.00
9307;BME280;4691;47.612;7.610;2023-02-28T03:35:58;99294.41;;;-0.06;100.00
9307;BME280;4691;47.612;7.610;2023-02-28T03:38:37;99309.06;;;-0.28;100.00
9307;BME280;4691;47.612;7.610;2023-02-28T03:41:13;99316.72;;;-0.55;100.00
9307;BME280;4691;47.612;7.610;2023-02-28T03:43:43;99327.34;;;-0.59;100.00
9307;BME280;4691;47.612;7.610;2023-02-28T03:46:12;99337.53;;;-0.83;100.00
9307;BME280;4691;47.612;7.610;2023-02-28T03:48:45;99343.66;;;-0.82;100.00
9307;BME280;4691;47.612;7.610;2023-02-28T03:51:16;99343.59;;;-0.79;100.00
9307;BME280;4691;47.612;7.610;2023-02-28T03:53:54;99334.22;;;-0.90;100.00
9307;BME280;4691;47.612;7.610;2023-02-28T03:56:29;99326.38;;;-0.93;100.00
9307;BME280;4691;47.612;7.610;2023-02-28T03:59:06;99322.88;;;-0.92;100.00
9307;BME280;4691;47.612;7.610;2023-02-28T04:01:39;99317.72;;;-0.95;100.00
9307;BME280;4691;47.612;7.610;2023-02-28T04:04:07;99310.00;;;-1.02;100.00
9307;BME280;4691;47.612;7.610;2023-02-28T04:06:33;99303.88;;;-1.03;100.00
9307;BME280;4691;47.612;7.610;2023-02-28T04:08:59;99295.31;;;-1.11;100.00
9307;BME280;4691;47.612;7.610;2023-02-28T04:11:38;99286.59;;;-1.13;100.00
9307;BME280;4691;47.612;7.610;2023-02-28T04:14:06;99288.13;;;-1.03;100.00
9307;BME280;4691;47.612;7.610;2023-02-28T04:16:34;99275.81;;;-1.01;100.00
9307;BME280;4691;47.612;7.610;2023-02-28T04:18:59;99265.31;;;-1.01;100.00
9307;BME280;4691;47.612;7.610;2023-02-28T04:21:33;99263.69;;;-1.05;100.00
9307;BME280;4691;47.612;7.610;2023-02-28T04:23:58;99255.84;;;-1.06;100.00
9307;BME280;4691;47.612;7.610;2023-02-28T04:26:30;99246.44;;;-1.15;100.00
9307;BME280;4691;47.612;7.610;2023-02-28T04:28:56;99284.91;;;-1.16;100.00
9307;BME280;4691;47.612;7.610;2023-02-28T04:31:21;99201.94;;;-1.21;100.00
9307;BME280;4691;47.612;7.610;2023-02-28T04:33:47;99192.44;;;-1.25;100.00
9307;BME280;4691;47.612;7.610;2023-02-28T04:36:12;99180.28;;;-1.29;100.00
9307;BME280;4691;47.612;7.610;2023-02-28T04:38:39;99143.56;;;-1.29;100.00
9307;BME280;4691;47.612;7.610;2023-02-28T04:41:05;99131.44;;;-1.34;100.00
9307;BME280;4691;47.612;7.610;2023-02-28T04:43:30;99114.97;;;-1.42;100.00
9307;BME280;4691;47.612;7.610;2023-02-28T04:45:57;99090.44;;;-1.39;100.00
9307;BME280;4691;47.612;7.610;2023-02-28T04:48:24;99068.03;;;-1.51;100.00
9307;BME280;4691;47.612;7.610;2023-02-28T04:50:51;99003.22;;;-1.47;100.00
9307;BME280;4691;47.612;7.610;2023-02-28T04:53:16;98984.81;;;-1.46;100.00
9307;BME280;4691;47.612;7.610;2023-02-28T04:55:43;98947.19;;;-1.45;100.00
9307;BME280;4691;47.612;7.610;2023-02-28T04:58:08;98916.66;;;-1.47;100.00
9307;BME280;4691;47.612;7.610;2023-02-28T05:00:34;98900.88;;;-1.46;100.00
9307;BME280;4691;47.612;7.610;2023-02-28T05:02:59;98921.88;;;-1.46;100.00
9307;BME280;4691;47.612;7.610;2023-02-28T05:05:24;98963.75;;;-1.43;100.00
9307;BME280;4691;47.612;7.610;2023-02-28T05:07:50;98954.28;;;-1.48;100.00
9307;BME280;4691;47.612;7.610;2023-02-28T05:10:15;98940.44;;;-1.54;100.00
9307;BME280;4691;47.612;7.610;2023-02-28T05:12:41;98936.88;;;-1.51;100.00
9307;BME280;4691;47.612;7.610;2023-02-28T05:15:07;98932.44;;;-1.49;100.00
9307;BME280;4691;47.612;7.610;2023-02-28T05:17:33;98920.34;;;-1.55;100.00
9307;BME280;4691;47.612;7.610;2023-02-28T05:19:58;98902.78;;;-1.51;100.00
9307;BME280;4691;47.612;7.610;2023-02-28T05:22:24;98894.78;;;-1.46;100.00
9307;BME280;4691;47.612;7.610;2023-02-28T05:24:49;98876.38;;;-1.45;100.00
9307;BME280;4691;47.612;7.610;2023-02-28T05:27:14;98863.44;;;-1.51;100.00
9307;BME280;4691;47.612;7.610;2023-02-28T05:29:40;98849.47;;;-1.51;100.00
9307;BME280;4691;47.612;7.610;2023-02-28T05:32:11;98840.59;;;-1.47;100.00
9307;BME280;4691;47.612;7.610;2023-02-28T05:34:38;98834.50;;;-1.48;100.00
9307;BME280;4691;47.612;7.610;2023-02-28T05:37:05;98824.81;;;-1.46;100.00
9307;BME280;4691;47.612;7.610;2023-02-28T05:39:30;98788.00;;;-1.43;100.00
9307;BME280;4691;47.612;7.610;2023-02-28T05:41:55;98781.84;;;-1.42;100.00
9307;BME280;4691;47.612;7.610;2023-02-28T05:44:21;98771.34;;;-1.42;100.00
9307;BME280;4691;47.612;7.610;2023-02-28T05:46:46;98768.00;;;-1.47;100.00
9307;BME280;4691;47.612;7.610;2023-02-28T05:49:11;98764.28;;;-1.40;100.00
9307;BME280;4691;47.612;7.610;2023-02-28T05:51:37;98758.19;;;-1.40;100.00
9307;BME280;4691;47.612;7.610;2023-02-28T05:54:05;98752.19;;;-1.44;100.00
9307;BME280;4691;47.612;7.610;2023-02-28T05:56:31;98744.00;;;-1.33;100.00
9307;BME280;4691;47.612;7.610;2023-02-28T05:58:57;98737.09;;;-1.37;100.00
9307;BME280;4691;47.612;7.610;2023-02-28T06:01:36;98722.44;;;-1.43;100.00
9307;BME280;4691;47.612;7.610;2023-02-28T06:04:03;98711.94;;;-1.43;100.00
9307;BME280;4691;47.612;7.610;2023-02-28T06:06:28;98706.88;;;-1.49;100.00
9307;BME280;4691;47.612;7.610;2023-02-28T06:08:55;98712.06;;;-1.47;100.00
9307;BME280;4691;47.612;7.610;2023-02-28T06:11:20;98703.34;;;-1.48;100.00
9307;BME280;4691;47.612;7.610;2023-02-28T06:13:45;98696.28;;;-1.46;100.00
9307;BME280;4691;47.612;7.610;2023-02-28T06:16:11;98690.19;;;-1.46;100.00
9307;BME280;4691;47.612;7.610;2023-02-28T06:18:37;98684.06;;;-1.47;100.00
9307;BME280;4691;47.612;7.610;2023-02-28T06:21:02;98692.66;;;-1.42;100.00
9307;BME280;4691;47.612;7.610;2023-02-28T06:23:28;98689.25;;;-1.44;100.00
9307;BME280;4691;47.612;7.610;2023-02-28T06:25:53;98350.66;;;-1.38;100.00
9307;BME280;4691;47.612;7.610;2023-02-28T06:28:21;98316.59;;;-1.39;100.00
9307;BME280;4691;47.612;7.610;2023-02-28T06:30:46;98279.97;;;-1.41;100.00
9307;BME280;4691;47.612;7.610;2023-02-28T06:33:11;98276.78;;;-1.49;100.00
9307;BME280;4691;47.612;7.610;2023-02-28T06:35:36;98288.16;;;-1.50;100.00
9307;BME280;4691;47.612;7.610;2023-02-28T06:38:02;98270.06;;;-1.56;100.00
9307;BME280;4691;47.612;7.610;2023-02-28T06:40:29;98246.28;;;-1.51;100.00
9307;BME280;4691;47.612;7.610;2023-02-28T06:42:56;98249.75;;;-1.51;100.00
9307;BME280;4691;47.612;7.610;2023-02-28T06:45:22;98254.94;;;-1.49;100.00
9307;BME280;4691;47.612;7.610;2023-02-28T06:47:47;98263.00;;;-1.54;100.00
9307;BME280;4691;47.612;7.610;2023-02-28T06:50:17;98266.38;;;-1.52;100.00
9307;BME280;4691;47.612;7.610;2023-02-28T06:52:46;98282.72;;;-1.44;100.00
9307;BME280;4691;47.612;7.610;2023-02-28T06:55:11;98288.63;;;-1.39;100.00
9307;BME280;4691;47.612;7.610;2023-02-28T06:57:36;98298.44;;;-1.44;100.00
9307;BME280;4691;47.612;7.610;2023-02-28T07:00:05;98307.88;;;-1.40;100.00
9307;BME280;4691;47.612;7.610;2023-02-28T07:02:33;98312.81;;;-1.30;100.00
9307;BME280;4691;47.612;7.610;2023-02-28T07:04:58;98329.78;;;-1.41;100.00
9307;BME280;4691;47.612;7.610;2023-02-28T07:07:23;98336.75;;;-1.40;100.00
9307;BME280;4691;47.612;7.610;2023-02-28T07:09:49;98344.97;;;-1.25;100.00
9307;BME280;4691;47.612;7.610;2023-02-28T07:12:14;98364.59;;;-1.36;100.00
9307;BME280;4691;47.612;7.610;2023-02-28T07:14:39;98366.13;;;-1.30;100.00
9307;BME280;4691;47.612;7.610;2023-02-28T07:17:07;98381.13;;;-1.34;100.00
9307;BME280;4691;47.612;7.610;2023-02-28T07:19:32;98387.84;;;-1.26;100.00
9307;BME280;4691;47.612;7.610;2023-02-28T07:21:58;98398.69;;;-1.36;100.00
9307;BME280;4691;47.612;7.610;2023-02-28T07:24:23;98414.13;;;-1.28;100.00
9307;BME280;4691;47.612;7.610;2023-02-28T07:26:51;98428.91;;;-1.25;100.00
9307;BME280;4691;47.612;7.610;2023-02-28T07:29:16;98443.28;;;-1.12;100.00
9307;BME280;4691;47.612;7.610;2023-02-28T07:31:41;98446.72;;;-1.10;100.00
9307;BME280;4691;47.612;7.610;2023-02-28T07:34:06;98471.13;;;-1.08;100.00
9307;BME280;4691;47.612;7.610;2023-02-28T07:36:32;98496.84;;;-1.18;100.00
9307;BME280;4691;47.612;7.610;2023-02-28T07:38:58;98514.19;;;-1.14;100.00
9307;BME280;4691;47.612;7.610;2023-02-28T07:41:23;98538.06;;;-1.21;100.00
9307;BME280;4691;47.612;7.610;2023-02-28T07:43:53;98560.78;;;-1.20;100.00
9307;BME280;4691;47.612;7.610;2023-02-28T07:46:20;98561.38;;;-1.12;100.00
9307;BME280;4691;47.612;7.610;2023-02-28T07:48:46;98582.53;;;-1.17;100.00
9307;BME280;4691;47.612;7.610;2023-02-28T07:51:11;98597.97;;;-1.07;100.00
9307;BME280;4691;47.612;7.610;2023-02-28T07:53:37;98610.31;;;-1.11;100.00
9307;BME280;4691;47.612;7.610;2023-02-28T07:56:03;98730.31;;;-1.16;100.00
9307;BME280;4691;47.612;7.610;2023-02-28T07:58:29;98734.38;;;-1.06;100.00
9307;BME280;4691;47.612;7.610;2023-02-28T08:00:55;98755.34;;;-1.04;100.00
9307;BME280;4691;47.612;7.610;2023-02-28T08:03:21;98793.97;;;-1.10;100.00
9307;BME280;4691;47.612;7.610;2023-02-28T08:05:47;98802.47;;;-1.01;100.00
9307;BME280;4691;47.612;7.610;2023-02-28T08:08:14;98808.88;;;-1.10;100.00
9307;BME280;4691;47.612;7.610;2023-02-28T08:10:40;98849.13;;;-1.11;100.00
9307;BME280;4691;47.612;7.610;2023-02-28T08:13:05;98856.69;;;-1.00;100.00
9307;BME280;4691;47.612;7.610;2023-02-28T08:15:31;98871.53;;;-0.99;100.00
9307;BME280;4691;47.612;7.610;2023-02-28T08:17:56;98880.06;;;-0.93;100.00
9307;BME280;4691;47.612;7.610;2023-02-28T08:20:23;98887.56;;;-0.80;100.00
9307;BME280;4691;47.612;7.610;2023-02-28T08:22:48;98910.91;;;-0.99;100.00
9307;BME280;4691;47.612;7.610;2023-02-28T08:25:14;98941.78;;;-0.78;100.00
9307;BME280;4691;47.612;7.610;2023-02-28T08:27:39;98962.03;;;-0.81;100.00
9307;BME280;4691;47.612;7.610;2023-02-28T08:30:05;98963.88;;;-0.57;100.00
9307;BME280;4691;47.612;7.610;2023-02-28T08:32:32;98984.19;;;-0.62;100.00
9307;BME280;4691;47.612;7.610;2023-02-28T08:34:58;99004.44;;;-0.66;100.00
9307;BME280;4691;47.612;7.610;2023-02-28T08:37:23;99023.06;;;-0.43;100.00
9307;BME280;4691;47.612;7.610;2023-02-28T08:39:49;99035.91;;;-0.34;100.00
9307;BME280;4691;47.612;7.610;2023-02-28T08:42:14;99043.84;;;-0.36;100.00
9307;BME280;4691;47.612;7.610;2023-02-28T08:44:39;99065.88;;;-0.41;100.00
9307;BME280;4691;47.612;7.610;2023-02-28T08:47:05;99086.03;;;-0.40;100.00
9307;BME280;4691;47.612;7.610;2023-02-28T08:49:31;99108.44;;;-0.29;100.00
9307;BME280;4691;47.612;7.610;2023-02-28T08:51:56;99114.91;;;-0.11;100.00
9307;BME280;4691;47.612;7.610;2023-02-28T08:54:22;99123.84;;;-0.16;100.00
9307;BME280;4691;47.612;7.610;2023-02-28T08:56:48;99138.88;;;-0.20;100.00
9307;BME280;4691;47.612;7.610;2023-02-28T08:59:13;99141.75;;;-0.29;100.00
9307;BME280;4691;47.612;7.610;2023-02-28T09:01:39;99138.03;;;-0.22;100.00
9307;BME280;4691;47.612;7.610;2023-02-28T09:04:06;99147.84;;;-0.29;100.00
9307;BME280;4691;47.612;7.610;2023-02-28T09:06:33;99145.19;;;-0.27;100.00
9307;BME280;4691;47.612;7.610;2023-02-28T09:08:59;99141.84;;;-0.32;100.00
9307;BME280;4691;47.612;7.610;2023-02-28T09:11:26;99135.59;;;-0.28;100.00
9307;BME280;4691;47.612;7.610;2023-02-28T09:13:52;99138.56;;;-0.11;100.00
9307;BME280;4691;47.612;7.610;2023-02-28T09:16:17;99148.75;;;0.02;100.00
9307;BME280;4691;47.612;7.610;2023-02-28T09:18:43;99142.41;;;0.09;100.00
9307;BME280;4691;47.612;7.610;2023-02-28T09:21:11;99159.53;;;-0.08;100.00
9307;BME280;4691;47.612;7.610;2023-02-28T09:23:41;99162.16;;;0.22;100.00
9307;BME280;4691;47.612;7.610;2023-02-28T09:26:06;99165.63;;;0.51;100.00
9307;BME280;4691;47.612;7.610;2023-02-28T09:28:32;99113.16;;;0.18;100.00
9307;BME280;4691;47.612;7.610;2023-02-28T09:30:57;99129.81;;;0.18;100.00
9307;BME280;4691;47.612;7.610;2023-02-28T09:33:24;99133.16;;;0.52;100.00
9307;BME280;4691;47.612;7.610;2023-02-28T09:35:51;99149.00;;;0.22;100.00
9307;BME280;4691;47.612;7.610;2023-02-28T09:38:22;99150.88;;;0.47;100.00
9307;BME280;4691;47.612;7.610;2023-02-28T09:40:50;99170.25;;;0.44;100.00
9307;BME280;4691;47.612;7.610;2023-02-28T09:43:17;99173.16;;;0.63;100.00
9307;BME280;4691;47.612;7.610;2023-02-28T09:45:51;99175.28;;;1.05;100.00
9307;BME280;4691;47.612;7.610;2023-02-28T09:48:32;99178.84;;;0.77;100.00
9307;BME280;4691;47.612;7.610;2023-02-28T09:51:05;99179.53;;;1.09;100.00
9307;BME280;4691;47.612;7.610;2023-02-28T09:53:36;99193.00;;;1.00;100.00
9307;BME280;4691;47.612;7.610;2023-02-28T09:56:07;99195.53;;;1.29;100.00
9307;BME280;4691;47.612;7.610;2023-02-28T10:04:08;99203.94;;;1.41;100.00
9307;BME280;4691;47.612;7.610;2023-02-28T10:06:44;99212.97;;;1.59;100.00
9307;BME280;4691;47.612;7.610;2023-02-28T10:09:22;99219.94;;;1.85;100.00
9307;BME280;4691;47.612;7.610;2023-02-28T10:11:52;99221.38;;;1.70;100.00
9307;BME280;4691;47.612;7.610;2023-02-28T10:14:24;99224.09;;;2.15;100.00
9307;BME280;4691;47.612;7.610;2023-02-28T10:17:02;99228.53;;;1.90;100.00
9307;BME280;4691;47.612;7.610;2023-02-28T10:19:40;99239.19;;;1.88;100.00
9307;BME280;4691;47.612;7.610;2023-02-28T10:22:17;99243.94;;;2.02;100.00
9307;BME280;4691;47.612;7.610;2023-02-28T10:24:52;99256.97;;;1.57;100.00
9307;BME280;4691;47.612;7.610;2023-02-28T10:29:52;99258.09;;;1.74;100.00
9307;BME280;4691;47.612;7.610;2023-02-28T10:32:21;99258.09;;;2.00;100.00
9307;BME280;4691;47.612;7.610;2023-02-28T10:37:45;99262.69;;;1.94;100.00
9307;BME280;4691;47.612;7.610;2023-02-28T10:42:42;99266.13;;;1.71;100.00
9307;BME280;4691;47.612;7.610;2023-02-28T10:45:17;99271.63;;;1.90;100.00
9307;BME280;4691;47.612;7.610;2023-02-28T10:52:54;99271.44;;;1.95;100.00
9307;BME280;4691;47.612;7.610;2023-02-28T10:57:45;99280.91;;;2.26;100.00
9307;BME280;4691;47.612;7.610;2023-02-28T11:00:21;99281.66;;;2.29;100.00
9307;BME280;4691;47.612;7.610;2023-02-28T11:02:47;99280.13;;;2.24;100.00
9307;BME280;4691;47.612;7.610;2023-02-28T11:05:31;99283.50;;;2.51;100.00
9307;BME280;4691;47.612;7.610;2023-02-28T11:11:03;99296.84;;;2.46;100.00
9307;BME280;4691;47.612;7.610;2023-02-28T11:13:33;99293.72;;;2.82;100.00
9307;BME280;4691;47.612;7.610;2023-02-28T11:16:02;99297.66;;;2.72;100.00
9307;BME280;4691;47.612;7.610;2023-02-28T11:18:39;99310.41;;;2.60;100.00
9307;BME280;4691;47.612;7.610;2023-02-28T11:21:07;99316.25;;;2.45;100.00
9307;BME280;4691;47.612;7.610;2023-02-28T11:23:36;99306.72;;;2.65;100.00
9307;BME280;4691;47.612;7.610;2023-02-28T11:26:03;99314.06;;;3.03;100.00
9307;BME280;4691;47.612;7.610;2023-02-28T11:35:52;99310.25;;;2.87;100.00
9307;BME280;4691;47.612;7.610;2023-02-28T11:38:20;99306.41;;;3.18;100.00
9307;BME280;4691;47.612;7.610;2023-02-28T11:46:30;99324.25;;;3.13;100.00
9307;BME280;4691;47.612;7.610;2023-02-28T11:52:36;99318.34;;;3.28;100.00
9307;BME280;4691;47.612;7.610;2023-02-28T11:55:40;99314.69;;;2.87;100.00
9307;BME280;4691;47.612;7.610;2023-02-28T11:58:33;99328.13;;;3.48;100.00
9307;BME280;4691;47.612;7.610;2023-02-28T12:01:31;99334.59;;;3.19;100.00
9307;BME280;4691;47.612;7.610;2023-02-28T12:06:50;99341.47;;;3.45;100.00
9307;BME280;4691;47.612;7.610;2023-02-28T12:09:29;99331.25;;;3.58;100.00
9307;BME280;4691;47.612;7.610;2023-02-28T12:20:17;99333.31;;;3.71;100.00
9307;BME280;4691;47.612;7.610;2023-02-28T12:25:38;99339.50;;;3.50;100.00
9307;BME280;4691;47.612;7.610;2023-02-28T12:28:12;99341.81;;;3.36;100.00
9307;BME280;4691;47.612;7.610;2023-02-28T12:30:48;99338.38;;;3.12;100.00
9307;BME280;4691;47.612;7.610;2023-02-28T12:33:16;99337.22;;;3.19;100.00
9307;BME280;4691;47.612;7.610;2023-02-28T12:35:57;99328.75;;;3.55;100.00
9307;BME280;4691;47.612;7.610;2023-02-28T12:38:35;99333.00;;;4.00;100.00
9307;BME280;4691;47.612;7.610;2023-02-28T12:41:10;99327.84;;;3.76;100.00
9307;BME280;4691;47.612;7.610;2023-02-28T12:43:42;99333.75;;;3.61;100.00
9307;BME280;4691;47.612;7.610;2023-02-28T12:46:19;99332.84;;;3.18;100.00
9307;BME280;4691;47.612;7.610;2023-02-28T12:48:50;99334.97;;;3.32;100.00
9307;BME280;4691;47.612;7.610;2023-02-28T12:51:18;99326.22;;;4.33;100.00
9307;BME280;4691;47.612;7.610;2023-02-28T12:53:55;99327.56;;;4.03;100.00
9307;BME280;4691;47.612;7.610;2023-02-28T12:56:44;99328.03;;;4.12;100.00
9307;BME280;4691;47.612;7.610;2023-02-28T12:59:20;99323.84;;;3.66;100.00
9307;BME280;4691;47.612;7.610;2023-02-28T13:02:09;99321.75;;;3.95;100.00
9307;BME280;4691;47.612;7.610;2023-02-28T13:07:42;99315.81;;;4.10;100.00
9307;BME280;4691;47.612;7.610;2023-02-28T13:10:16;99325.47;;;3.70;100.00
9307;BME280;4691;47.612;7.610;2023-02-28T13:13:02;99321.91;;;3.91;100.00
9307;BME280;4691;47.612;7.610;2023-02-28T13:15:28;99330.53;;;3.95;100.00
9307;BME280;4691;47.612;7.610;2023-02-28T13:17:58;99322.56;;;3.97;100.00
9307;BME280;4691;47.612;7.610;2023-02-28T13:20:27;99319.78;;;4.00;100.00
9307;BME280;4691;47.612;7.610;2023-02-28T13:22:54;99316.78;;;3.87;100.00
9307;BME280;4691;47.612;7.610;2023-02-28T13:27:55;99336.59;;;3.99;100.00
9307;BME280;4691;47.612;7.610;2023-02-28T13:36:27;99338.41;;;3.76;100.00
9307;BME280;4691;47.612;7.610;2023-02-28T13:39:01;99337.28;;;3.82;100.00
9307;BME280;4691;47.612;7.610;2023-02-28T13:46:32;99329.56;;;4.18;100.00
9307;BME280;4691;47.612;7.610;2023-02-28T13:51:47;99353.97;;;3.84;100.00
9307;BME280;4691;47.612;7.610;2023-02-28T14:03:18;99357.22;;;3.90;100.00
9307;BME280;4691;47.612;7.610;2023-02-28T14:08:33;99356.16;;;4.15;100.00
9307;BME280;4691;47.612;7.610;2023-02-28T14:11:22;99352.34;;;4.02;100.00
9307;BME280;4691;47.612;7.610;2023-02-28T14:13:48;99370.84;;;3.37;100.00
9307;BME280;4691;47.612;7.610;2023-02-28T14:16:17;99366.34;;;3.83;100.00
9307;BME280;4691;47.612;7.610;2023-02-28T14:18:51;99368.06;;;4.05;100.00
9307;BME280;4691;47.612;7.610;2023-02-28T14:21:29;99373.69;;;3.55;100.00
9307;BME280;4691;47.612;7.610;2023-02-28T14:30:02;99370.47;;;3.46;100.00
9307;BME280;4691;47.612;7.610;2023-02-28T14:32:35;99373.56;;;3.58;100.00
9307;BME280;4691;47.612;7.610;2023-02-28T14:37:56;99379.47;;;3.42;100.00
9307;BME280;4691;47.612;7.610;2023-02-28T14:40:30;99379.38;;;3.44;100.00
9307;BME280;4691;47.612;7.610;2023-02-28T14:43:03;99389.78;;;3.70;100.00
9307;BME280;4691;47.612;7.610;2023-02-28T14:45:30;99390.22;;;4.02;100.00
9307;BME280;4691;47.612;7.610;2023-02-28T14:47:56;99386.69;;;3.81;100.00
9307;BME280;4691;47.612;7.610;2023-02-28T14:50:27;99379.94;;;3.74;100.00
9307;BME280;4691;47.612;7.610;2023-02-28T14:52:54;99391.38;;;3.75;100.00
9307;BME280;4691;47.612;7.610;2023-02-28T14:55:26;99392.72;;;3.41;100.00
9307;BME280;4691;47.612;7.610;2023-02-28T14:58:04;99392.50;;;3.69;100.00
9307;BME280;4691;47.612;7.610;2023-02-28T15:00:33;99395.22;;;3.67;100.00
9307;BME280;4691;47.612;7.610;2023-02-28T15:03:01;99391.25;;;3.34;100.00
9307;BME280;4691;47.612;7.610;2023-02-28T15:05:42;99404.66;;;3.29;100.00
9307;BME280;4691;47.612;7.610;2023-02-28T15:08:15;99410.44;;;3.39;100.00
9307;BME280;4691;47.612;7.610;2023-02-28T15:11:05;99403.88;;;3.27;100.00
9307;BME280;4691;47.612;7.610;2023-02-28T15:13:39;99406.75;;;3.43;100.00
9307;BME280;4691;47.612;7.610;2023-02-28T15:16:12;99406.88;;;3.40;100.00
9307;BME280;4691;47.612;7.610;2023-02-28T15:21:12;99407.75;;;3.40;100.00